Houston's Hourly Summary for Sunday, May 13, 2018
Hour Temp
(f)
RH
(%)
Solar Rad.
(MJ/m2)
Rainfall
(in)
Wind
(mph)
5/13/2018 12:00 AM 76 82 0 0 0
5/13/2018 1:00 AM 75 85 0 0 0
5/13/2018 2:00 AM 74 88 0 0 0
5/13/2018 3:00 AM 73 89 0 0 0
5/13/2018 4:00 AM 72 91 0 0 0
5/13/2018 5:00 AM 73 92 0 0 0
5/13/2018 6:00 AM 73 92 0 0 0
5/13/2018 7:00 AM 72 91 0.03 0 0
5/13/2018 8:00 AM 74 84 0.5 0 0
5/13/2018 9:00 AM 79 73 1.2 0 0
5/13/2018 10:00 AM 81 65 1.5 0 3.21
5/13/2018 11:00 AM 83 56 1.77 0 5.2
5/13/2018 12:00 PM 85 49 2.28 0 5
5/13/2018 1:00 PM 87 45 2.83 0 6.09
5/13/2018 2:00 PM 88 45 2.81 0 6.54
5/13/2018 3:00 PM 89 41 3.17 0 6.49
5/13/2018 4:00 PM 89 41 3.04 0 6.91
5/13/2018 5:00 PM 88 43 2.34 0 7.64
5/13/2018 6:00 PM 86 49 1.63 0 7.38
5/13/2018 7:00 PM 84 52 0.92 0 6.63
5/13/2018 8:00 PM 81 60 0.19 0 6.08
5/13/2018 9:00 PM 79 68 0 0 4.89
5/13/2018 10:00 PM 77 76 0 0 3.45
5/13/2018 11:00 PM 76 80 0 0 2.72
Data Summary 79 68 24.21 0.00 3.26